createdAt,value
2023-01-10T00:00:03.400Z,91.8
2023-01-10T00:05:03.360Z,92.09
2023-01-10T00:10:03.445Z,92.99
2023-01-10T00:15:03.012Z,92.88
2023-01-10T00:20:02.797Z,93.67
2023-01-10T00:25:02.520Z,91.88
2023-01-10T00:30:03.404Z,90.22
2023-01-10T00:35:03.176Z,90.63
2023-01-10T00:40:02.862Z,91.84
2023-01-10T00:45:02.576Z,90.65
2023-01-10T00:50:03.238Z,90.12
2023-01-10T00:55:03.374Z,90.16
2023-01-10T01:00:02.770Z,89.79
2023-01-10T01:05:02.609Z,89.64
2023-01-10T01:10:03.409Z,90.87
2023-01-10T01:15:03.391Z,90.11
2023-01-10T01:20:03.207Z,90.85
2023-01-10T01:25:02.750Z,90.8
2023-01-10T01:30:10.910Z,90.45
2023-01-10T01:35:03.396Z,90.63
2023-01-10T01:40:03.278Z,90.41
2023-01-10T01:45:02.675Z,90.59
2023-01-10T01:50:03.374Z,92.09
2023-01-10T01:55:03.355Z,92.25
2023-01-10T02:00:02.784Z,92.27
2023-01-10T02:05:03.448Z,92.57
2023-01-10T02:10:03.610Z,93.31
2023-01-10T02:15:02.928Z,93.23
2023-01-10T02:20:03.686Z,93.67
2023-01-10T02:25:03.181Z,94.75
2023-01-10T02:30:03.004Z,94.67
2023-01-10T02:35:02.694Z,94.41
2023-01-10T02:40:02.495Z,94.39
2023-01-10T02:45:03.172Z,94.08
2023-01-10T02:50:02.958Z,94.74
2023-01-10T02:55:03.248Z,94.87
2023-01-10T03:00:03.415Z,95.18
2023-01-10T03:05:03.249Z,95.52
2023-01-10T03:10:02.719Z,95.72
2023-01-10T03:15:03.448Z,96.58
2023-01-10T03:20:03.165Z,96.79
2023-01-10T03:25:02.900Z,97.24
2023-01-10T03:30:03.490Z,96.87
2023-01-10T03:35:03.091Z,96.62
2023-01-10T03:40:02.847Z,96.21
2023-01-10T03:45:02.531Z,95.4
2023-01-10T03:50:02.622Z,94.6
2023-01-10T03:55:03.035Z,94.85
2023-01-10T04:00:03.317Z,95.92
2023-01-10T04:05:02.890Z,95.97
2023-01-10T04:10:02.719Z,96.16
2023-01-10T04:15:03.513Z,95.88
2023-01-10T04:20:03.708Z,96.01
2023-01-10T04:25:02.929Z,95.72
2023-01-10T04:30:02.716Z,95.02
2023-01-10T04:35:03.703Z,94.33
2023-01-10T04:40:03.233Z,93.89
2023-01-10T04:45:03.026Z,92.81
2023-01-10T04:50:02.657Z,92.69
2023-01-10T04:55:03.839Z,93.16
2023-01-10T05:00:03.401Z,94.12
2023-01-10T05:05:03.037Z,93.59
2023-01-10T05:10:02.865Z,92.57
2023-01-10T05:15:02.698Z,93.18
2023-01-10T05:20:03.370Z,93.34
2023-01-10T05:25:02.600Z,93.07
2023-01-10T05:30:02.682Z,93.68
2023-01-10T05:35:02.822Z,93.49
2023-01-10T05:40:02.510Z,91.62
2023-01-10T05:45:03.612Z,91.04
2023-01-10T05:50:03.134Z,91.09
2023-01-10T05:55:03.425Z,90.27
2023-01-10T06:00:05.462Z,90.79
2023-01-10T06:05:02.847Z,89.79
2023-01-10T06:10:02.967Z,89.27
2023-01-10T06:15:03.031Z,89.94
2023-01-10T06:20:02.886Z,90.33
2023-01-10T06:25:03.080Z,90.71
2023-01-10T06:30:03.440Z,90.28
2023-01-10T06:35:03.156Z,90.79
2023-01-10T06:40:02.916Z,90.32
2023-01-10T06:45:02.860Z,90.6
2023-01-10T06:50:02.671Z,90.9
2023-01-10T06:55:03.857Z,90.73
2023-01-10T07:00:03.070Z,91.3
2023-01-10T07:05:02.941Z,91.97
2023-01-10T07:10:02.878Z,91.67
2023-01-10T07:15:02.608Z,91.62
2023-01-10T07:20:02.599Z,91.62
2023-01-10T07:25:03.160Z,92.01
2023-01-10T07:30:02.952Z,91.64
2023-01-10T07:35:02.719Z,93
2023-01-10T07:40:03.462Z,93.35
2023-01-10T07:45:03.204Z,94.17
2023-01-10T07:50:03.319Z,93.3
2023-01-10T07:55:03.117Z,92.34
2023-01-10T08:00:02.597Z,92.8
2023-01-10T08:05:03.326Z,92.82
2023-01-10T08:10:03.064Z,92.81
2023-01-10T08:15:02.954Z,93.15
2023-01-10T08:20:02.737Z,93.36
2023-01-10T08:25:03.351Z,94.6
2023-01-10T08:30:03.077Z,94.64
2023-01-10T08:35:03.245Z,94.47
2023-01-10T08:40:02.930Z,94.36
2023-01-10T08:45:02.774Z,95.43
2023-01-10T08:50:03.496Z,95.38
2023-01-10T08:55:03.256Z,95.8
2023-01-10T09:00:03.285Z,95.79
2023-01-10T09:05:04.833Z,95.59
2023-01-10T09:10:03.481Z,96.14
2023-01-10T09:15:03.286Z,94.99
2023-01-10T09:20:03.037Z,95.59
2023-01-10T09:25:03.016Z,94.72
2023-01-10T09:30:02.810Z,93.63
2023-01-10T09:35:03.277Z,93.86
2023-01-10T09:40:03.032Z,93.45
2023-01-10T09:45:03.138Z,92.64
2023-01-10T09:50:02.564Z,92.81
2023-01-10T09:55:03.975Z,91.69
2023-01-10T10:00:03.366Z,90.55
2023-01-10T10:05:03.006Z,93.03
2023-01-10T10:10:02.756Z,92.89
2023-01-10T10:15:03.495Z,90.87
2023-01-10T10:20:03.449Z,89.49
2023-01-10T10:25:03.642Z,86.78
2023-01-10T10:30:03.298Z,86.58
2023-01-10T10:35:02.900Z,88.25
2023-01-10T10:40:02.674Z,89.09
2023-01-10T10:45:03.079Z,87.97
2023-01-10T10:50:02.460Z,88.98
2023-01-10T10:55:03.384Z,88.35
2023-01-10T11:00:03.102Z,87.41
2023-01-10T11:05:03.123Z,86.18
2023-01-10T11:10:02.747Z,84.93
2023-01-10T11:15:02.643Z,85.52
2023-01-10T11:20:03.349Z,85.08
2023-01-10T11:25:03.247Z,84.32
2023-01-10T11:30:03.225Z,84
2023-01-10T11:35:03.086Z,83.51
2023-01-10T11:40:02.787Z,84
2023-01-10T11:45:03.494Z,83.66
2023-01-10T11:50:03.222Z,82.38
2023-01-10T11:55:03.980Z,83.26
2023-01-10T12:00:03.259Z,83.42
2023-01-10T12:05:03.234Z,83.3
2023-01-10T12:10:02.753Z,84.95
2023-01-10T12:15:03.560Z,82.2
2023-01-10T12:20:03.222Z,83.01
2023-01-10T12:25:02.906Z,83.4
2023-01-10T12:30:02.796Z,82.04
2023-01-10T12:35:02.561Z,77.91
2023-01-10T12:40:03.274Z,80.55
2023-01-10T12:45:03.189Z,79.8
2023-01-10T12:50:02.665Z,83.65
2023-01-10T12:55:03.807Z,82.46
2023-01-10T13:00:03.240Z,82.97
2023-01-10T13:05:02.632Z,81.17
2023-01-10T13:10:02.591Z,83.04
2023-01-10T13:15:03.286Z,83.42
2023-01-10T13:20:03.298Z,83.83
2023-01-10T13:25:02.918Z,82.58
2023-01-10T13:30:02.643Z,82.56
2023-01-10T13:35:03.360Z,82.33
2023-01-10T13:40:03.210Z,83.17
2023-01-10T13:45:02.955Z,84.56
2023-01-10T13:50:03.140Z,84.73
2023-01-10T13:55:03.445Z,81.75
2023-01-10T14:00:03.416Z,79.73
2023-01-10T14:05:03.074Z,82.91
2023-01-10T14:10:05.414Z,81.79
2023-01-10T14:15:03.537Z,84.06
2023-01-10T14:20:03.291Z,83.49
2023-01-10T14:25:02.945Z,83.03
2023-01-10T14:30:02.686Z,82.93
2023-01-10T14:35:03.445Z,82.31
2023-01-10T14:40:03.244Z,81.87
2023-01-10T14:45:02.964Z,84.03
2023-01-10T14:50:02.849Z,84.21
2023-01-10T14:55:03.248Z,83.57
2023-01-10T15:00:03.841Z,84.46
2023-01-10T15:05:03.356Z,83.07
2023-01-10T15:10:03.717Z,84.09
2023-01-10T15:15:03.435Z,84.94
2023-01-10T15:20:03.001Z,85.35
2023-01-10T15:25:02.138Z,85.96
2023-01-10T15:30:03.260Z,86.24
2023-01-10T15:35:02.982Z,85.85
2023-01-10T15:40:02.735Z,87.04
2023-01-10T15:45:02.665Z,87.38
2023-01-10T15:50:02.539Z,88.39
2023-01-10T15:55:03.525Z,88.5
2023-01-10T16:00:03.487Z,89.05
2023-01-10T16:05:02.947Z,89.22
2023-01-10T16:10:02.790Z,89.7
2023-01-10T16:15:03.488Z,89.14
2023-01-10T16:20:03.371Z,89.13
2023-01-10T16:25:03.090Z,89.49
2023-01-10T16:30:03.045Z,90.23
2023-01-10T16:35:03.030Z,90.59
2023-01-10T16:40:02.790Z,90.37
2023-01-10T16:45:02.756Z,89.48
2023-01-10T16:50:03.460Z,89.37
2023-01-10T16:55:03.985Z,89.78
2023-01-10T17:00:02.525Z,89.99
2023-01-10T17:05:03.404Z,90.2
2023-01-10T17:10:03.078Z,89.97
2023-01-10T17:15:02.899Z,90.94
2023-01-10T17:20:02.615Z,90.59
2023-01-10T17:25:03.421Z,90.01
2023-01-10T17:30:03.429Z,89.29
2023-01-10T17:35:03.301Z,89.58
2023-01-10T17:40:02.886Z,90.25
2023-01-10T17:45:02.529Z,90.2
2023-01-10T17:50:02.604Z,89.83
2023-01-10T17:55:04.236Z,87.05
2023-01-10T18:00:03.210Z,84.73
2023-01-10T18:05:02.858Z,85.16
2023-01-10T18:10:02.539Z,84.34
2023-01-10T18:15:03.355Z,85.26
2023-01-10T18:20:02.969Z,84.94
2023-01-10T18:25:02.955Z,84.89
2023-01-10T18:30:03.550Z,85.99
2023-01-10T18:35:03.239Z,86.28
2023-01-10T18:40:03.358Z,86.54
2023-01-10T18:45:03.109Z,86.69
2023-01-10T18:50:02.814Z,87.23
2023-01-10T18:55:02.968Z,87.23
2023-01-10T19:00:03.428Z,87.74
2023-01-10T19:05:03.240Z,87.68
2023-01-10T19:10:03.035Z,87.29
2023-01-10T19:15:02.695Z,87.43
2023-01-10T19:20:02.647Z,88.08
2023-01-10T19:25:03.439Z,88.75
2023-01-10T19:30:03.225Z,89.99
2023-01-10T19:35:03.101Z,91.31
2023-01-10T19:40:03.109Z,92.22
2023-01-10T19:45:02.871Z,92.37
2023-01-10T19:50:02.642Z,92.91
2023-01-10T19:55:04.243Z,92.95
2023-01-10T20:00:03.268Z,92.66
2023-01-10T20:05:02.511Z,92.89
2023-01-10T20:10:02.658Z,93.14
2023-01-10T20:15:03.398Z,92.58
2023-01-10T20:20:03.359Z,92.49
2023-01-10T20:25:03.192Z,91.58
2023-01-10T20:30:03.385Z,90.17
2023-01-10T20:35:02.989Z,89.25
2023-01-10T20:40:02.697Z,89.15
2023-01-10T20:45:03.543Z,88.99
2023-01-10T20:50:03.610Z,87.9
2023-01-10T20:55:03.097Z,87.68
2023-01-10T21:00:02.729Z,87.93
2023-01-10T21:05:03.440Z,88.02
2023-01-10T21:10:03.232Z,87.82
2023-01-10T21:15:02.956Z,87.78
2023-01-10T21:20:02.700Z,87.04
2023-01-10T21:25:03.457Z,87.77
2023-01-10T21:30:03.267Z,87.22
2023-01-10T21:35:03.204Z,87.06
2023-01-10T21:40:03.157Z,86.96
2023-01-10T21:45:03.050Z,86.01
2023-01-10T21:50:02.620Z,86.02
2023-01-10T21:55:03.770Z,85.31
2023-01-10T22:00:03.367Z,85.55
2023-01-10T22:05:03.337Z,86.89
2023-01-10T22:10:03.027Z,87.88
2023-01-10T22:15:02.828Z,88.23
2023-01-10T22:20:02.271Z,88.43
2023-01-10T22:25:03.245Z,89.26
2023-01-10T22:30:03.088Z,88.65
2023-01-10T22:35:02.904Z,88.32
2023-01-10T22:40:02.617Z,86.78
2023-01-10T22:45:03.191Z,87.21
2023-01-10T22:50:02.898Z,87.55
2023-01-10T22:55:02.658Z,87.64
2023-01-10T23:00:03.414Z,87
2023-01-10T23:05:02.919Z,86.62
2023-01-10T23:10:02.669Z,86.08
2023-01-10T23:15:03.467Z,85.93
2023-01-10T23:20:03.224Z,86.14
2023-01-10T23:25:02.896Z,86.14
2023-01-10T23:30:02.946Z,86.63
2023-01-10T23:35:02.902Z,86.29
2023-01-10T23:40:02.561Z,85.74
2023-01-10T23:45:03.334Z,85.23
2023-01-10T23:50:03.003Z,85.55
2023-01-10T23:55:03.240Z,84.9
